Winchester, VA (22602)

2:13 AM EST on January 26, 2015 (GMT -0500)
Twin Lakes Overlook | Change Station
CLOSE
Current Station
Personal Weather Station
Location: Winchester, VA
Elevation: 575 ft
Nearby Weather Stations
Active Advisory: Winter Storm Warning

Elev 575 ft 39.17 °N, 78.10 °W | Updated 3 minutes ago

Light Drizzle
Light Drizzle
36.5 °F
Feels Like 36 °F
N
2.0
Wind Variable Wind from NNE
Gusts 8.0 mph

Today
High -- | Low -- °F
--% Chance of Precip.
Yesterday
High -- | Low -- °F
Precip. -- in
7:24 AM 5:26 PM
Waxing Crescent, 40% visible
Pressure 29.78 in
Visibility 4.0 miles
Clouds Scattered Clouds 500 ft
Scattered Clouds 2900 ft
Overcast 4500 ft
Windchill 36 °F
Dew Point 35 °F
Humidity 94%
Rainfall 0.00 in
Snow Depth Not available.
UV 0 out of 12
Pollen .10 out of 12
Air Quality Not available.
Flu Activity Not available.
METAR KOKV 260655Z AUTO 02005KT 4SM -DZ SCT005 SCT029 OVC045 03/01 A2978 RMK AO2

More Conditions Fewer Conditions

Pressure 29.78 in
Visibility 4.0 miles
Clouds Scattered Clouds 500 ft
Scattered Clouds 2900 ft
Overcast 4500 ft
Windchill 36 °F
Dew Point 35 °F
Humidity 94%
Rainfall 0.00 in
Snow Depth Not available.
UV 0 out of 12
Pollen .10 out of 12
Air Quality Not available.
Flu Activity Not available.
METAR KOKV 260655Z AUTO 02005KT 4SM -DZ SCT005 SCT029 OVC045 03/01 A2978 RMK AO2

More Conditions Fewer Conditions

10-Day Weather Forecast

Almanac

Astronomy

Jan. 26, 2015 Rise Set
Actual Time
Civil Twilight
Nautical Twilight
Astronomical Twilight
Moon
Length of Visible Light
Length of Day
Tomorrow will be .
, % of the Moon is Illuminated

Today's Extremes

State Highs State Lows

Community

WunderPhotos

Upload Photos

1,790,155 photos uploaded!

WunderBlogs® & News

Nearby

Air Quality

  Air Quality AQ Index Pollutant
Not available.

Snow Depth

Station Depth Elevation

Earthquake Activity

City Distance Mag. Time & Date
Minimum magnitude displayed is 2.5.

Coastal Water Temperatures

Place Temperature

Nearby Weather Stations